Карточка аэропорта UATT

Внимание!
Информация на этой странице в стадии наполнения.
Если вы не увидели какой-то информации, или заметили неточность - пожалуйста сообщите нам!
Спасибо!
Команда RU-STAFF
Название аэропортаАктобе
Название аэропорта (англ.)Aktobe
Превышение738 ft. (224.9 m.)
Координаты50°14.748', 57°12.402'
Высота перехода10000ft
Эшелон переходаFL120, QNH<733:FL130
Коды ответчика3440-3447, 3540-3547
Зона ОрВДАктобе РПИ (UATT)
Данные METARUATT 200130Z 27004MPS 9999 FEW070CB 21/16 Q1009 NOSIG RMK QFE737/0982
Проноз погоды (TAF)UATT 191804Z 1918/2018 23005MPS 9999 SCT040CB TX28/2010Z TN19/2000Z TEMPO 1918/1924 26010MPS 3100 -TSRA BKN015CB TEMPO 2000/2008 27008MPS TEMPO 2008/2015 30012MPS 3100 -TSRA BKN015CB BECMG 2015/2016 33005MPS
NOTAMshow/hide NOTAM
AWOS   TABLE

Информация о ВПП

ВПП Длина ВПП (м.) Покрытие Курс ВПП Частота ILS
313202Бетон315111.7
133202Бетон135111.7

Диспетчерские позиции




Спутниковое изображение